sensor_id;sensor_type;location;lat;lon;timestamp;P1;durP1;ratioP1;P2;durP2;ratioP2
23732;SDS011;12047;53.450;-2.286;2023-07-31T00:02:02;6.78;;;3.17;;
23732;SDS011;12047;53.450;-2.286;2023-07-31T00:07:03;4.88;;;2.80;;
23732;SDS011;12047;53.450;-2.286;2023-07-31T00:12:04;6.65;;;2.67;;
23732;SDS011;12047;53.450;-2.286;2023-07-31T00:17:05;5.68;;;2.50;;
23732;SDS011;12047;53.450;-2.286;2023-07-31T00:22:05;5.65;;;2.38;;
23732;SDS011;12047;53.450;-2.286;2023-07-31T00:27:06;7.57;;;2.40;;
23732;SDS011;12047;53.450;-2.286;2023-07-31T00:32:06;4.65;;;2.40;;
23732;SDS011;12047;53.450;-2.286;2023-07-31T00:37:07;3.10;;;1.70;;
23732;SDS011;12047;53.450;-2.286;2023-07-31T00:42:08;4.85;;;2.10;;
23732;SDS011;12047;53.450;-2.286;2023-07-31T00:47:08;2.35;;;1.80;;
23732;SDS011;12047;53.450;-2.286;2023-07-31T00:52:09;4.72;;;2.13;;
23732;SDS011;12047;53.450;-2.286;2023-07-31T00:57:10;6.20;;;2.40;;
23732;SDS011;12047;53.450;-2.286;2023-07-31T01:02:11;5.68;;;2.00;;
23732;SDS011;12047;53.450;-2.286;2023-07-31T01:07:22;5.68;;;2.25;;
23732;SDS011;12047;53.450;-2.286;2023-07-31T01:12:30;2.85;;;1.70;;
23732;SDS011;12047;53.450;-2.286;2023-07-31T01:17:31;5.70;;;1.70;;
23732;SDS011;12047;53.450;-2.286;2023-07-31T01:27:37;4.03;;;1.70;;
23732;SDS011;12047;53.450;-2.286;2023-07-31T01:32:47;3.78;;;1.88;;
23732;SDS011;12047;53.450;-2.286;2023-07-31T01:37:48;5.32;;;1.80;;
23732;SDS011;12047;53.450;-2.286;2023-07-31T01:42:49;4.28;;;1.98;;
23732;SDS011;12047;53.450;-2.286;2023-07-31T01:47:49;4.22;;;1.63;;
23732;SDS011;12047;53.450;-2.286;2023-07-31T01:52:50;4.20;;;1.58;;
23732;SDS011;12047;53.450;-2.286;2023-07-31T01:57:50;3.70;;;1.70;;
23732;SDS011;12047;53.450;-2.286;2023-07-31T02:02:52;3.13;;;1.67;;
23732;SDS011;12047;53.450;-2.286;2023-07-31T02:07:52;3.03;;;1.23;;
23732;SDS011;12047;53.450;-2.286;2023-07-31T02:12:53;2.40;;;1.50;;
23732;SDS011;12047;53.450;-2.286;2023-07-31T02:17:53;3.43;;;1.50;;
23732;SDS011;12047;53.450;-2.286;2023-07-31T02:22:54;2.15;;;1.25;;
23732;SDS011;12047;53.450;-2.286;2023-07-31T02:27:54;3.53;;;1.30;;
23732;SDS011;12047;53.450;-2.286;2023-07-31T02:32:54;3.07;;;1.47;;
23732;SDS011;12047;53.450;-2.286;2023-07-31T02:37:55;3.20;;;1.20;;
23732;SDS011;12047;53.450;-2.286;2023-07-31T02:42:55;1.95;;;1.42;;
23732;SDS011;12047;53.450;-2.286;2023-07-31T02:47:56;11.33;;;2.00;;
23732;SDS011;12047;53.450;-2.286;2023-07-31T02:52:56;3.28;;;1.85;;
23732;SDS011;12047;53.450;-2.286;2023-07-31T02:57:57;2.63;;;1.40;;
23732;SDS011;12047;53.450;-2.286;2023-07-31T03:02:58;4.30;;;1.45;;
23732;SDS011;12047;53.450;-2.286;2023-07-31T03:07:58;3.22;;;1.52;;
23732;SDS011;12047;53.450;-2.286;2023-07-31T03:12:59;5.20;;;1.70;;
23732;SDS011;12047;53.450;-2.286;2023-07-31T03:17:59;3.95;;;1.50;;
23732;SDS011;12047;53.450;-2.286;2023-07-31T03:23:00;2.30;;;1.40;;
23732;SDS011;12047;53.450;-2.286;2023-07-31T03:28:00;4.13;;;1.60;;
23732;SDS011;12047;53.450;-2.286;2023-07-31T03:33:00;3.47;;;1.70;;
23732;SDS011;12047;53.450;-2.286;2023-07-31T03:38:01;3.63;;;1.40;;
23732;SDS011;12047;53.450;-2.286;2023-07-31T03:43:02;6.07;;;1.48;;
23732;SDS011;12047;53.450;-2.286;2023-07-31T03:48:03;3.78;;;1.40;;
23732;SDS011;12047;53.450;-2.286;2023-07-31T03:53:04;2.63;;;1.30;;
23732;SDS011;12047;53.450;-2.286;2023-07-31T03:58:04;2.25;;;1.55;;
23732;SDS011;12047;53.450;-2.286;2023-07-31T04:03:04;4.63;;;1.70;;
23732;SDS011;12047;53.450;-2.286;2023-07-31T04:08:05;3.60;;;1.80;;
23732;SDS011;12047;53.450;-2.286;2023-07-31T04:13:05;4.20;;;1.50;;
23732;SDS011;12047;53.450;-2.286;2023-07-31T04:18:06;3.45;;;1.70;;
23732;SDS011;12047;53.450;-2.286;2023-07-31T04:23:06;5.63;;;1.75;;
23732;SDS011;12047;53.450;-2.286;2023-07-31T04:28:07;2.70;;;1.75;;
23732;SDS011;12047;53.450;-2.286;2023-07-31T04:33:08;4.50;;;1.70;;
23732;SDS011;12047;53.450;-2.286;2023-07-31T04:38:08;1.98;;;1.77;;
23732;SDS011;12047;53.450;-2.286;2023-07-31T04:43:08;3.65;;;1.70;;
23732;SDS011;12047;53.450;-2.286;2023-07-31T04:48:09;3.10;;;1.70;;
23732;SDS011;12047;53.450;-2.286;2023-07-31T04:53:09;4.90;;;1.73;;
23732;SDS011;12047;53.450;-2.286;2023-07-31T04:58:10;4.88;;;1.80;;
23732;SDS011;12047;53.450;-2.286;2023-07-31T05:03:10;3.63;;;2.10;;
23732;SDS011;12047;53.450;-2.286;2023-07-31T05:08:11;4.97;;;2.05;;
23732;SDS011;12047;53.450;-2.286;2023-07-31T05:13:12;8.88;;;2.05;;
23732;SDS011;12047;53.450;-2.286;2023-07-31T05:18:12;4.35;;;1.77;;
23732;SDS011;12047;53.450;-2.286;2023-07-31T05:23:13;2.63;;;1.63;;
23732;SDS011;12047;53.450;-2.286;2023-07-31T05:28:13;4.50;;;1.83;;
23732;SDS011;12047;53.450;-2.286;2023-07-31T05:33:13;5.23;;;2.37;;
23732;SDS011;12047;53.450;-2.286;2023-07-31T05:38:14;5.88;;;2.72;;
23732;SDS011;12047;53.450;-2.286;2023-07-31T05:43:14;6.90;;;3.42;;
23732;SDS011;12047;53.450;-2.286;2023-07-31T05:48:15;6.47;;;3.22;;
23732;SDS011;12047;53.450;-2.286;2023-07-31T05:53:15;6.73;;;3.53;;
23732;SDS011;12047;53.450;-2.286;2023-07-31T05:58:15;8.07;;;4.10;;
23732;SDS011;12047;53.450;-2.286;2023-07-31T06:03:16;7.90;;;4.05;;
23732;SDS011;12047;53.450;-2.286;2023-07-31T06:08:16;9.00;;;4.57;;
23732;SDS011;12047;53.450;-2.286;2023-07-31T06:13:17;11.68;;;4.60;;
23732;SDS011;12047;53.450;-2.286;2023-07-31T06:18:17;12.75;;;4.80;;
23732;SDS011;12047;53.450;-2.286;2023-07-31T06:23:18;11.68;;;5.45;;
23732;SDS011;12047;53.450;-2.286;2023-07-31T06:28:18;12.35;;;4.95;;
23732;SDS011;12047;53.450;-2.286;2023-07-31T06:33:19;11.20;;;4.72;;
23732;SDS011;12047;53.450;-2.286;2023-07-31T06:38:21;12.53;;;5.17;;
23732;SDS011;12047;53.450;-2.286;2023-07-31T06:43:23;10.68;;;5.55;;
23732;SDS011;12047;53.450;-2.286;2023-07-31T06:48:23;14.13;;;5.57;;
23732;SDS011;12047;53.450;-2.286;2023-07-31T06:53:24;13.20;;;5.72;;
23732;SDS011;12047;53.450;-2.286;2023-07-31T06:58:24;10.27;;;5.60;;
23732;SDS011;12047;53.450;-2.286;2023-07-31T07:03:25;15.10;;;6.45;;
23732;SDS011;12047;53.450;-2.286;2023-07-31T07:08:25;15.18;;;6.78;;
23732;SDS011;12047;53.450;-2.286;2023-07-31T07:13:26;16.15;;;6.47;;
23732;SDS011;12047;53.450;-2.286;2023-07-31T07:18:27;17.80;;;6.68;;
23732;SDS011;12047;53.450;-2.286;2023-07-31T07:23:27;11.80;;;5.68;;
23732;SDS011;12047;53.450;-2.286;2023-07-31T07:28:28;16.05;;;6.30;;
23732;SDS011;12047;53.450;-2.286;2023-07-31T07:33:28;12.90;;;5.60;;
23732;SDS011;12047;53.450;-2.286;2023-07-31T07:38:29;15.98;;;6.00;;
23732;SDS011;12047;53.450;-2.286;2023-07-31T07:43:29;15.68;;;6.15;;
23732;SDS011;12047;53.450;-2.286;2023-07-31T07:48:29;14.07;;;6.22;;
23732;SDS011;12047;53.450;-2.286;2023-07-31T07:53:30;14.68;;;6.55;;
23732;SDS011;12047;53.450;-2.286;2023-07-31T07:58:30;15.88;;;5.93;;
23732;SDS011;12047;53.450;-2.286;2023-07-31T08:03:31;15.25;;;5.25;;
23732;SDS011;12047;53.450;-2.286;2023-07-31T08:08:31;15.85;;;5.30;;
23732;SDS011;12047;53.450;-2.286;2023-07-31T08:13:32;15.15;;;5.15;;
23732;SDS011;12047;53.450;-2.286;2023-07-31T08:18:33;12.05;;;4.90;;
23732;SDS011;12047;53.450;-2.286;2023-07-31T08:23:33;15.93;;;4.55;;
23732;SDS011;12047;53.450;-2.286;2023-07-31T08:28:33;11.70;;;4.82;;
23732;SDS011;12047;53.450;-2.286;2023-07-31T08:33:36;11.85;;;4.72;;
23732;SDS011;12047;53.450;-2.286;2023-07-31T08:38:37;16.55;;;5.25;;
23732;SDS011;12047;53.450;-2.286;2023-07-31T08:43:38;15.15;;;5.00;;
23732;SDS011;12047;53.450;-2.286;2023-07-31T08:48:39;14.43;;;5.05;;
23732;SDS011;12047;53.450;-2.286;2023-07-31T08:53:41;11.60;;;4.88;;
23732;SDS011;12047;53.450;-2.286;2023-07-31T08:58:42;11.45;;;4.95;;
23732;SDS011;12047;53.450;-2.286;2023-07-31T09:03:44;12.13;;;4.85;;
23732;SDS011;12047;53.450;-2.286;2023-07-31T09:08:45;12.15;;;4.32;;
23732;SDS011;12047;53.450;-2.286;2023-07-31T09:13:46;12.13;;;4.15;;
23732;SDS011;12047;53.450;-2.286;2023-07-31T09:18:53;13.50;;;4.20;;
23732;SDS011;12047;53.450;-2.286;2023-07-31T09:23:56;12.48;;;4.47;;
23732;SDS011;12047;53.450;-2.286;2023-07-31T09:28:58;11.40;;;5.32;;
23732;SDS011;12047;53.450;-2.286;2023-07-31T09:33:58;15.55;;;4.70;;
23732;SDS011;12047;53.450;-2.286;2023-07-31T09:39:03;14.18;;;4.50;;
23732;SDS011;12047;53.450;-2.286;2023-07-31T09:44:04;9.75;;;4.35;;
23732;SDS011;12047;53.450;-2.286;2023-07-31T09:54:12;9.98;;;3.90;;
23732;SDS011;12047;53.450;-2.286;2023-07-31T09:59:19;13.13;;;3.70;;
23732;SDS011;12047;53.450;-2.286;2023-07-31T10:04:20;9.47;;;3.70;;
23732;SDS011;12047;53.450;-2.286;2023-07-31T10:09:27;11.80;;;4.07;;
23732;SDS011;12047;53.450;-2.286;2023-07-31T10:14:31;12.40;;;4.65;;
23732;SDS011;12047;53.450;-2.286;2023-07-31T10:19:32;6.93;;;3.63;;
23732;SDS011;12047;53.450;-2.286;2023-07-31T10:24:34;9.07;;;3.78;;
23732;SDS011;12047;53.450;-2.286;2023-07-31T10:29:37;7.60;;;3.88;;
23732;SDS011;12047;53.450;-2.286;2023-07-31T10:34:40;9.00;;;3.72;;
23732;SDS011;12047;53.450;-2.286;2023-07-31T10:39:41;12.27;;;3.40;;
23732;SDS011;12047;53.450;-2.286;2023-07-31T10:44:46;10.68;;;3.45;;
23732;SDS011;12047;53.450;-2.286;2023-07-31T10:49:47;6.45;;;2.95;;
23732;SDS011;12047;53.450;-2.286;2023-07-31T10:55:31;9.40;;;3.33;;
23732;SDS011;12047;53.450;-2.286;2023-07-31T11:00:25;7.85;;;3.08;;
23732;SDS011;12047;53.450;-2.286;2023-07-31T11:11:12;6.57;;;2.58;;
23732;SDS011;12047;53.450;-2.286;2023-07-31T11:16:13;7.25;;;2.50;;
23732;SDS011;12047;53.450;-2.286;2023-07-31T11:21:14;5.82;;;2.60;;
23732;SDS011;12047;53.450;-2.286;2023-07-31T11:26:16;5.28;;;2.50;;
23732;SDS011;12047;53.450;-2.286;2023-07-31T11:31:17;5.97;;;3.03;;
23732;SDS011;12047;53.450;-2.286;2023-07-31T11:36:19;7.25;;;2.72;;
23732;SDS011;12047;53.450;-2.286;2023-07-31T11:41:20;9.68;;;3.33;;
23732;SDS011;12047;53.450;-2.286;2023-07-31T11:46:20;7.28;;;2.50;;
23732;SDS011;12047;53.450;-2.286;2023-07-31T11:51:22;9.40;;;2.75;;
23732;SDS011;12047;53.450;-2.286;2023-07-31T11:56:22;8.82;;;3.08;;
23732;SDS011;12047;53.450;-2.286;2023-07-31T12:01:23;10.50;;;3.47;;
23732;SDS011;12047;53.450;-2.286;2023-07-31T12:06:34;10.07;;;3.60;;
23732;SDS011;12047;53.450;-2.286;2023-07-31T12:11:53;10.70;;;3.65;;
23732;SDS011;12047;53.450;-2.286;2023-07-31T12:17:27;11.02;;;3.88;;
23732;SDS011;12047;53.450;-2.286;2023-07-31T12:22:21;8.38;;;3.45;;
23732;SDS011;12047;53.450;-2.286;2023-07-31T12:27:21;8.98;;;4.20;;
23732;SDS011;12047;53.450;-2.286;2023-07-31T12:32:25;12.32;;;3.70;;
23732;SDS011;12047;53.450;-2.286;2023-07-31T12:37:28;9.45;;;3.80;;
23732;SDS011;12047;53.450;-2.286;2023-07-31T12:42:30;8.75;;;3.78;;
23732;SDS011;12047;53.450;-2.286;2023-07-31T12:47:31;9.23;;;3.97;;
23732;SDS011;12047;53.450;-2.286;2023-07-31T12:52:31;14.35;;;4.35;;
23732;SDS011;12047;53.450;-2.286;2023-07-31T12:57:33;13.25;;;4.60;;
23732;SDS011;12047;53.450;-2.286;2023-07-31T13:02:33;15.57;;;5.13;;
23732;SDS011;12047;53.450;-2.286;2023-07-31T13:07:34;15.15;;;5.40;;
23732;SDS011;12047;53.450;-2.286;2023-07-31T13:12:34;13.93;;;5.45;;
23732;SDS011;12047;53.450;-2.286;2023-07-31T13:17:35;12.38;;;5.38;;
23732;SDS011;12047;53.450;-2.286;2023-07-31T13:22:36;12.18;;;5.78;;
23732;SDS011;12047;53.450;-2.286;2023-07-31T13:27:36;13.80;;;5.45;;
23732;SDS011;12047;53.450;-2.286;2023-07-31T13:32:37;14.70;;;5.95;;
23732;SDS011;12047;53.450;-2.286;2023-07-31T13:37:40;13.88;;;6.15;;
23732;SDS011;12047;53.450;-2.286;2023-07-31T13:42:40;16.98;;;6.00;;
23732;SDS011;12047;53.450;-2.286;2023-07-31T13:47:41;17.00;;;5.43;;
23732;SDS011;12047;53.450;-2.286;2023-07-31T13:52:41;15.18;;;5.63;;
23732;SDS011;12047;53.450;-2.286;2023-07-31T13:57:42;15.30;;;6.50;;
23732;SDS011;12047;53.450;-2.286;2023-07-31T14:02:43;16.17;;;6.90;;
23732;SDS011;12047;53.450;-2.286;2023-07-31T14:07:43;15.93;;;6.47;;
23732;SDS011;12047;53.450;-2.286;2023-07-31T14:12:44;11.07;;;5.22;;
23732;SDS011;12047;53.450;-2.286;2023-07-31T14:17:44;17.53;;;4.73;;
23732;SDS011;12047;53.450;-2.286;2023-07-31T14:22:44;13.18;;;3.15;;
23732;SDS011;12047;53.450;-2.286;2023-07-31T14:27:45;8.07;;;3.03;;
23732;SDS011;12047;53.450;-2.286;2023-07-31T14:32:46;6.97;;;2.28;;
23732;SDS011;12047;53.450;-2.286;2023-07-31T14:37:47;4.22;;;1.60;;
23732;SDS011;12047;53.450;-2.286;2023-07-31T14:42:47;4.30;;;1.85;;
23732;SDS011;12047;53.450;-2.286;2023-07-31T14:47:48;5.53;;;2.13;;
23732;SDS011;12047;53.450;-2.286;2023-07-31T14:52:48;4.75;;;1.60;;
23732;SDS011;12047;53.450;-2.286;2023-07-31T14:57:49;6.75;;;2.00;;
23732;SDS011;12047;53.450;-2.286;2023-07-31T15:02:50;7.35;;;2.08;;
23732;SDS011;12047;53.450;-2.286;2023-07-31T15:07:50;5.55;;;1.75;;
23732;SDS011;12047;53.450;-2.286;2023-07-31T15:12:51;5.90;;;1.67;;
23732;SDS011;12047;53.450;-2.286;2023-07-31T15:17:51;6.18;;;2.00;;
23732;SDS011;12047;53.450;-2.286;2023-07-31T15:22:52;6.63;;;2.15;;
23732;SDS011;12047;53.450;-2.286;2023-07-31T15:27:52;8.07;;;2.05;;
23732;SDS011;12047;53.450;-2.286;2023-07-31T15:32:53;7.85;;;2.30;;
23732;SDS011;12047;53.450;-2.286;2023-07-31T15:37:53;5.82;;;2.83;;
23732;SDS011;12047;53.450;-2.286;2023-07-31T15:42:54;9.90;;;3.80;;
23732;SDS011;12047;53.450;-2.286;2023-07-31T15:47:54;14.50;;;4.18;;
23732;SDS011;12047;53.450;-2.286;2023-07-31T15:52:54;10.52;;;2.72;;
23732;SDS011;12047;53.450;-2.286;2023-07-31T15:57:55;5.90;;;2.40;;
23732;SDS011;12047;53.450;-2.286;2023-07-31T16:02:55;5.25;;;2.47;;
23732;SDS011;12047;53.450;-2.286;2023-07-31T16:07:56;6.75;;;2.60;;
23732;SDS011;12047;53.450;-2.286;2023-07-31T16:12:56;7.82;;;2.50;;
23732;SDS011;12047;53.450;-2.286;2023-07-31T16:17:57;6.35;;;2.63;;
23732;SDS011;12047;53.450;-2.286;2023-07-31T16:22:57;7.97;;;2.60;;
23732;SDS011;12047;53.450;-2.286;2023-07-31T16:27:58;8.52;;;2.60;;
23732;SDS011;12047;53.450;-2.286;2023-07-31T16:33:00;7.55;;;3.10;;
23732;SDS011;12047;53.450;-2.286;2023-07-31T16:38:00;6.82;;;2.88;;
23732;SDS011;12047;53.450;-2.286;2023-07-31T16:43:01;6.78;;;2.70;;
23732;SDS011;12047;53.450;-2.286;2023-07-31T16:48:01;8.17;;;2.93;;
23732;SDS011;12047;53.450;-2.286;2023-07-31T16:53:02;9.20;;;2.80;;
23732;SDS011;12047;53.450;-2.286;2023-07-31T16:58:03;6.40;;;2.40;;
23732;SDS011;12047;53.450;-2.286;2023-07-31T17:03:03;5.60;;;2.40;;
23732;SDS011;12047;53.450;-2.286;2023-07-31T17:08:05;7.32;;;2.78;;
23732;SDS011;12047;53.450;-2.286;2023-07-31T17:13:06;6.05;;;2.78;;
23732;SDS011;12047;53.450;-2.286;2023-07-31T17:18:06;5.32;;;2.10;;
23732;SDS011;12047;53.450;-2.286;2023-07-31T17:23:08;4.60;;;1.90;;
23732;SDS011;12047;53.450;-2.286;2023-07-31T17:28:08;5.88;;;2.10;;
23732;SDS011;12047;53.450;-2.286;2023-07-31T17:33:09;7.75;;;2.05;;
23732;SDS011;12047;53.450;-2.286;2023-07-31T17:38:09;5.90;;;2.38;;
23732;SDS011;12047;53.450;-2.286;2023-07-31T17:43:10;6.32;;;1.90;;
23732;SDS011;12047;53.450;-2.286;2023-07-31T17:48:10;6.00;;;2.17;;
23732;SDS011;12047;53.450;-2.286;2023-07-31T17:53:11;6.53;;;2.50;;
23732;SDS011;12047;53.450;-2.286;2023-07-31T17:58:11;6.37;;;2.17;;
23732;SDS011;12047;53.450;-2.286;2023-07-31T18:03:12;6.75;;;2.15;;
23732;SDS011;12047;53.450;-2.286;2023-07-31T18:08:12;5.80;;;1.98;;
23732;SDS011;12047;53.450;-2.286;2023-07-31T18:13:13;9.03;;;2.27;;
23732;SDS011;12047;53.450;-2.286;2023-07-31T18:18:14;5.75;;;2.15;;
23732;SDS011;12047;53.450;-2.286;2023-07-31T18:23:15;4.38;;;2.30;;
23732;SDS011;12047;53.450;-2.286;2023-07-31T18:28:15;9.27;;;3.00;;
23732;SDS011;12047;53.450;-2.286;2023-07-31T18:33:16;7.40;;;2.97;;
23732;SDS011;12047;53.450;-2.286;2023-07-31T18:38:16;9.00;;;3.10;;
23732;SDS011;12047;53.450;-2.286;2023-07-31T18:43:18;8.57;;;3.03;;
23732;SDS011;12047;53.450;-2.286;2023-07-31T18:48:18;10.82;;;3.47;;
23732;SDS011;12047;53.450;-2.286;2023-07-31T18:53:19;10.15;;;3.20;;
23732;SDS011;12047;53.450;-2.286;2023-07-31T18:58:19;7.15;;;3.25;;
23732;SDS011;12047;53.450;-2.286;2023-07-31T19:03:20;8.18;;;3.75;;
23732;SDS011;12047;53.450;-2.286;2023-07-31T19:08:20;8.10;;;3.90;;
23732;SDS011;12047;53.450;-2.286;2023-07-31T19:13:20;10.18;;;3.83;;
23732;SDS011;12047;53.450;-2.286;2023-07-31T19:18:21;9.67;;;3.90;;
23732;SDS011;12047;53.450;-2.286;2023-07-31T19:23:21;9.32;;;3.30;;
23732;SDS011;12047;53.450;-2.286;2023-07-31T19:28:22;17.15;;;4.18;;
23732;SDS011;12047;53.450;-2.286;2023-07-31T19:33:23;11.63;;;3.95;;
23732;SDS011;12047;53.450;-2.286;2023-07-31T19:38:23;10.68;;;3.70;;
23732;SDS011;12047;53.450;-2.286;2023-07-31T19:43:24;9.65;;;3.47;;
23732;SDS011;12047;53.450;-2.286;2023-07-31T19:48:24;12.32;;;3.17;;
23732;SDS011;12047;53.450;-2.286;2023-07-31T19:53:25;9.48;;;3.47;;
23732;SDS011;12047;53.450;-2.286;2023-07-31T19:58:25;12.23;;;3.90;;
23732;SDS011;12047;53.450;-2.286;2023-07-31T20:03:27;7.75;;;3.90;;
23732;SDS011;12047;53.450;-2.286;2023-07-31T20:08:27;12.27;;;3.75;;
23732;SDS011;12047;53.450;-2.286;2023-07-31T20:13:28;12.25;;;4.13;;
23732;SDS011;12047;53.450;-2.286;2023-07-31T20:18:30;9.68;;;4.00;;
23732;SDS011;12047;53.450;-2.286;2023-07-31T20:23:31;11.07;;;3.85;;
23732;SDS011;12047;53.450;-2.286;2023-07-31T20:28:31;12.57;;;4.63;;
23732;SDS011;12047;53.450;-2.286;2023-07-31T20:33:32;11.57;;;4.35;;
23732;SDS011;12047;53.450;-2.286;2023-07-31T20:38:32;12.77;;;4.38;;
23732;SDS011;12047;53.450;-2.286;2023-07-31T20:43:33;10.50;;;4.65;;
23732;SDS011;12047;53.450;-2.286;2023-07-31T20:48:34;15.23;;;4.72;;
23732;SDS011;12047;53.450;-2.286;2023-07-31T20:53:35;13.38;;;4.30;;
23732;SDS011;12047;53.450;-2.286;2023-07-31T20:58:36;9.47;;;4.13;;
23732;SDS011;12047;53.450;-2.286;2023-07-31T21:03:37;10.88;;;4.85;;
23732;SDS011;12047;53.450;-2.286;2023-07-31T21:08:38;10.98;;;4.47;;
23732;SDS011;12047;53.450;-2.286;2023-07-31T21:13:38;7.28;;;4.07;;
23732;SDS011;12047;53.450;-2.286;2023-07-31T21:18:39;6.43;;;3.50;;
23732;SDS011;12047;53.450;-2.286;2023-07-31T21:23:39;10.33;;;4.30;;
23732;SDS011;12047;53.450;-2.286;2023-07-31T21:28:40;8.98;;;4.00;;
23732;SDS011;12047;53.450;-2.286;2023-07-31T21:33:41;11.40;;;4.23;;
23732;SDS011;12047;53.450;-2.286;2023-07-31T21:38:42;9.05;;;3.78;;
23732;SDS011;12047;53.450;-2.286;2023-07-31T21:43:42;9.65;;;3.83;;
23732;SDS011;12047;53.450;-2.286;2023-07-31T21:48:43;10.32;;;3.63;;
23732;SDS011;12047;53.450;-2.286;2023-07-31T21:53:43;10.88;;;3.45;;
23732;SDS011;12047;53.450;-2.286;2023-07-31T21:58:44;8.50;;;3.83;;
23732;SDS011;12047;53.450;-2.286;2023-07-31T22:03:44;11.27;;;3.30;;
23732;SDS011;12047;53.450;-2.286;2023-07-31T22:08:45;6.32;;;2.90;;
23732;SDS011;12047;53.450;-2.286;2023-07-31T22:13:45;8.57;;;2.95;;
23732;SDS011;12047;53.450;-2.286;2023-07-31T22:18:45;6.38;;;3.78;;
23732;SDS011;12047;53.450;-2.286;2023-07-31T22:23:46;7.40;;;3.00;;
23732;SDS011;12047;53.450;-2.286;2023-07-31T22:28:46;6.57;;;2.72;;
23732;SDS011;12047;53.450;-2.286;2023-07-31T22:33:47;4.97;;;2.60;;
23732;SDS011;12047;53.450;-2.286;2023-07-31T22:38:47;9.23;;;2.95;;
23732;SDS011;12047;53.450;-2.286;2023-07-31T22:43:48;9.07;;;2.92;;
23732;SDS011;12047;53.450;-2.286;2023-07-31T22:48:49;10.68;;;2.65;;
23732;SDS011;12047;53.450;-2.286;2023-07-31T22:53:49;9.90;;;3.05;;
23732;SDS011;12047;53.450;-2.286;2023-07-31T22:58:50;6.40;;;2.63;;
23732;SDS011;12047;53.450;-2.286;2023-07-31T23:03:50;9.02;;;3.42;;
23732;SDS011;12047;53.450;-2.286;2023-07-31T23:08:51;11.63;;;3.60;;
23732;SDS011;12047;53.450;-2.286;2023-07-31T23:13:51;9.80;;;3.10;;
23732;SDS011;12047;53.450;-2.286;2023-07-31T23:18:52;11.80;;;3.45;;
23732;SDS011;12047;53.450;-2.286;2023-07-31T23:23:52;11.03;;;3.43;;
23732;SDS011;12047;53.450;-2.286;2023-07-31T23:28:52;10.50;;;3.72;;
23732;SDS011;12047;53.450;-2.286;2023-07-31T23:33:53;10.52;;;3.00;;
23732;SDS011;12047;53.450;-2.286;2023-07-31T23:38:53;13.27;;;3.20;;
23732;SDS011;12047;53.450;-2.286;2023-07-31T23:43:54;13.55;;;3.60;;
23732;SDS011;12047;53.450;-2.286;2023-07-31T23:48:58;11.50;;;3.22;;
23732;SDS011;12047;53.450;-2.286;2023-07-31T23:53:59;9.43;;;2.20;;
23732;SDS011;12047;53.450;-2.286;2023-07-31T23:58:59;12.98;;;2.40;;
